TAY5917 EKBI-EDDP
Flight info
| Callsign | TAY5917 |
|---|---|
| Flight time | 0h 50m |
| Altitude | 37000 |
| Route | ALS M852 EKERN DCT NUSGU Z998 PITEN DCT SUVAL M736 MAG Z20 KENIG T959 KOJEC KOJEC1R |
| Aircraft | B738/M-SDE2E3FGHIRWXY/LB1 |
Departure
| Time | 2026-05-06 06:38 |
|---|---|
| Airport | Billund Airport (EKBI) |
Arrival
| Time | 2026-05-06 07:28 |
|---|---|
| Airport | Leipzig/Halle Airport (EDDP) |
| Time | Latitude | Longitude | Altitude | Speed | Heading |
|---|---|---|---|---|---|
| 2026-05-06 06:07 | 55.73753 | 9.13687 | 215 ft | 0 kts | 176° |
| 2026-05-06 06:33 | 55.73754 | 9.13687 | 215 ft | 1 kts | 176° |
| 2026-05-06 06:33 | 55.73778 | 9.13684 | 222 ft | 4 kts | 176° |
| 2026-05-06 06:34 | 55.73799 | 9.13683 | 217 ft | 4 kts | 190° |
| 2026-05-06 06:34 | 55.73820 | 9.13701 | 222 ft | 4 kts | 242° |
| 2026-05-06 06:34 | 55.73826 | 9.13743 | 216 ft | 4 kts | 266° |
| 2026-05-06 06:34 | 55.73827 | 9.13772 | 215 ft | 0 kts | 266° |
| 2026-05-06 06:36 | 55.73826 | 9.13735 | 216 ft | 7 kts | 267° |
| 2026-05-06 06:36 | 55.73823 | 9.13648 | 215 ft | 7 kts | 267° |
| 2026-05-06 06:37 | 55.73842 | 9.13577 | 220 ft | 7 kts | 343° |
| 2026-05-06 06:37 | 55.73899 | 9.13587 | 219 ft | 9 kts | 7° |
| 2026-05-06 06:37 | 55.73961 | 9.13603 | 223 ft | 9 kts | 13° |
| 2026-05-06 06:37 | 55.73987 | 9.13698 | 215 ft | 10 kts | 87° |
| 2026-05-06 06:38 | 55.73997 | 9.14029 | 215 ft | 58 kts | 87° |
| 2026-05-06 06:38 | 55.74032 | 9.15148 | 222 ft | 123 kts | 86° |
| 2026-05-06 06:38 | 55.74086 | 9.16971 | 372 ft | 160 kts | 85° |
| 2026-05-06 06:38 | 55.74147 | 9.18908 | 1178 ft | 156 kts | 84° |
| 2026-05-06 06:39 | 55.74207 | 9.20794 | 1926 ft | 156 kts | 85° |
| 2026-05-06 06:39 | 55.74269 | 9.22882 | 2198 ft | 182 kts | 85° |
| 2026-05-06 06:39 | 55.74334 | 9.25285 | 2401 ft | 206 kts | 85° |
| 2026-05-06 06:39 | 55.74269 | 9.27935 | 2582 ft | 227 kts | 104° |
| 2026-05-06 06:40 | 55.73337 | 9.30340 | 2814 ft | 254 kts | 142° |
| 2026-05-06 06:40 | 55.71749 | 9.31929 | 3340 ft | 268 kts | 153° |
| 2026-05-06 06:40 | 55.70005 | 9.33140 | 4105 ft | 270 kts | 162° |
| 2026-05-06 06:40 | 55.68203 | 9.34001 | 4846 ft | 274 kts | 165° |
| 2026-05-06 06:41 | 55.66351 | 9.34792 | 5644 ft | 273 kts | 166° |
| 2026-05-06 06:41 | 55.64474 | 9.35586 | 6399 ft | 277 kts | 166° |
| 2026-05-06 06:41 | 55.62603 | 9.36389 | 7179 ft | 279 kts | 166° |
| 2026-05-06 06:41 | 55.60692 | 9.37223 | 7831 ft | 284 kts | 167° |
| 2026-05-06 06:42 | 55.58776 | 9.38073 | 8683 ft | 283 kts | 168° |
| 2026-05-06 06:42 | 55.56888 | 9.38917 | 9537 ft | 284 kts | 167° |
| 2026-05-06 06:42 | 55.54961 | 9.39786 | 10259 ft | 289 kts | 168° |
| 2026-05-06 06:42 | 55.52931 | 9.40702 | 10492 ft | 312 kts | 167° |
| 2026-05-06 06:43 | 55.50751 | 9.41688 | 10686 ft | 335 kts | 167° |
| 2026-05-06 06:43 | 55.48422 | 9.42744 | 10853 ft | 356 kts | 167° |
| 2026-05-06 06:43 | 55.45969 | 9.43860 | 11200 ft | 370 kts | 167° |
| 2026-05-06 06:43 | 55.43452 | 9.45009 | 11722 ft | 377 kts | 167° |
| 2026-05-06 06:44 | 55.40897 | 9.46176 | 12360 ft | 381 kts | 167° |
| 2026-05-06 06:44 | 55.38320 | 9.47352 | 13061 ft | 384 kts | 167° |
| 2026-05-06 06:44 | 55.35743 | 9.48526 | 13769 ft | 388 kts | 167° |
| 2026-05-06 06:44 | 55.33113 | 9.49723 | 14427 ft | 391 kts | 167° |
| 2026-05-06 06:45 | 55.30470 | 9.50923 | 15089 ft | 393 kts | 168° |
| 2026-05-06 06:45 | 55.27803 | 9.52131 | 15764 ft | 396 kts | 168° |
| 2026-05-06 06:45 | 55.25146 | 9.53333 | 16422 ft | 399 kts | 168° |
| 2026-05-06 06:45 | 55.22426 | 9.54561 | 17070 ft | 403 kts | 168° |
| 2026-05-06 06:46 | 55.19690 | 9.55794 | 17681 ft | 407 kts | 169° |
| 2026-05-06 06:46 | 55.16957 | 9.57024 | 18272 ft | 411 kts | 169° |
| 2026-05-06 06:46 | 55.14178 | 9.58274 | 18801 ft | 414 kts | 168° |
| 2026-05-06 06:46 | 55.11383 | 9.59530 | 19328 ft | 417 kts | 169° |
| 2026-05-06 06:47 | 55.08566 | 9.60794 | 19873 ft | 419 kts | 169° |
| 2026-05-06 06:47 | 55.05729 | 9.62065 | 20420 ft | 421 kts | 169° |
| 2026-05-06 06:47 | 55.02912 | 9.63326 | 20940 ft | 424 kts | 169° |
| 2026-05-06 06:47 | 55.00047 | 9.64605 | 21451 ft | 426 kts | 169° |
| 2026-05-06 06:48 | 54.97164 | 9.65890 | 21945 ft | 429 kts | 169° |
| 2026-05-06 06:48 | 54.94267 | 9.67180 | 22443 ft | 431 kts | 169° |
| 2026-05-06 06:48 | 54.91353 | 9.68476 | 22929 ft | 433 kts | 169° |
| 2026-05-06 06:48 | 54.88420 | 9.69777 | 23395 ft | 436 kts | 169° |
| 2026-05-06 06:49 | 54.85474 | 9.71083 | 23802 ft | 437 kts | 169° |
| 2026-05-06 06:49 | 54.82521 | 9.72391 | 24220 ft | 438 kts | 169° |
| 2026-05-06 06:49 | 54.79560 | 9.73701 | 24630 ft | 439 kts | 169° |
| 2026-05-06 06:49 | 54.76592 | 9.75010 | 25015 ft | 441 kts | 169° |
| 2026-05-06 06:50 | 54.73616 | 9.76322 | 25372 ft | 442 kts | 169° |
| 2026-05-06 06:50 | 54.70623 | 9.77638 | 25720 ft | 444 kts | 168° |
| 2026-05-06 06:50 | 54.67661 | 9.78940 | 26074 ft | 445 kts | 168° |
| 2026-05-06 06:50 | 54.64657 | 9.80258 | 26439 ft | 446 kts | 168° |
| 2026-05-06 06:51 | 54.61640 | 9.81580 | 26799 ft | 447 kts | 168° |
| 2026-05-06 06:51 | 54.58616 | 9.82902 | 27081 ft | 450 kts | 168° |
| 2026-05-06 06:51 | 54.55578 | 9.84229 | 27352 ft | 452 kts | 168° |
| 2026-05-06 06:51 | 54.52527 | 9.85560 | 27772 ft | 450 kts | 168° |
| 2026-05-06 06:52 | 54.49518 | 9.86957 | 28305 ft | 447 kts | 165° |
| 2026-05-06 06:52 | 54.46575 | 9.88633 | 28892 ft | 443 kts | 163° |
| 2026-05-06 06:52 | 54.43665 | 9.90358 | 29429 ft | 440 kts | 163° |
| 2026-05-06 06:52 | 54.40808 | 9.92070 | 29898 ft | 439 kts | 163° |
| 2026-05-06 06:53 | 54.37926 | 9.93793 | 30301 ft | 437 kts | 163° |
| 2026-05-06 06:53 | 54.35068 | 9.95492 | 30753 ft | 433 kts | 163° |
| 2026-05-06 06:53 | 54.32223 | 9.97172 | 31187 ft | 431 kts | 162° |
| 2026-05-06 06:53 | 54.29394 | 9.98832 | 31550 ft | 429 kts | 162° |
| 2026-05-06 06:54 | 54.26573 | 10.00480 | 31962 ft | 427 kts | 162° |
| 2026-05-06 06:54 | 54.23770 | 10.02113 | 32418 ft | 423 kts | 162° |
| 2026-05-06 06:54 | 54.20998 | 10.03725 | 32896 ft | 419 kts | 162° |
| 2026-05-06 06:54 | 54.18244 | 10.05323 | 33353 ft | 416 kts | 162° |
| 2026-05-06 06:55 | 54.15514 | 10.06905 | 33763 ft | 413 kts | 162° |
| 2026-05-06 06:55 | 54.12790 | 10.08481 | 34092 ft | 412 kts | 162° |
| 2026-05-06 06:55 | 54.10074 | 10.10050 | 34239 ft | 414 kts | 162° |
| 2026-05-06 06:55 | 54.07329 | 10.11633 | 34372 ft | 417 kts | 162° |
| 2026-05-06 06:56 | 54.04575 | 10.13221 | 34529 ft | 419 kts | 162° |
| 2026-05-06 06:56 | 54.01806 | 10.14814 | 34712 ft | 420 kts | 162° |
| 2026-05-06 06:56 | 53.99030 | 10.16410 | 34920 ft | 421 kts | 162° |
| 2026-05-06 06:56 | 53.96289 | 10.17982 | 35097 ft | 422 kts | 162° |
| 2026-05-06 06:57 | 53.93498 | 10.19582 | 35267 ft | 424 kts | 162° |
| 2026-05-06 06:57 | 53.90698 | 10.21185 | 35451 ft | 425 kts | 163° |
| 2026-05-06 06:57 | 53.87890 | 10.22790 | 35638 ft | 426 kts | 163° |
| 2026-05-06 06:57 | 53.85072 | 10.24399 | 35820 ft | 427 kts | 163° |
| 2026-05-06 06:58 | 53.82251 | 10.26007 | 35987 ft | 428 kts | 163° |
| 2026-05-06 06:58 | 53.79417 | 10.27620 | 36145 ft | 430 kts | 163° |
| 2026-05-06 06:58 | 53.76604 | 10.29218 | 36255 ft | 432 kts | 163° |
| 2026-05-06 06:58 | 53.73751 | 10.30837 | 36441 ft | 433 kts | 163° |
| 2026-05-06 06:59 | 53.70893 | 10.32458 | 36648 ft | 433 kts | 163° |
| 2026-05-06 06:59 | 53.68032 | 10.34077 | 36818 ft | 434 kts | 163° |
| 2026-05-06 06:59 | 53.65158 | 10.35701 | 36845 ft | 437 kts | 163° |
| 2026-05-06 07:00 | 53.59392 | 10.38952 | 36845 ft | 436 kts | 163° |
| 2026-05-06 07:00 | 53.53656 | 10.42179 | 36843 ft | 433 kts | 163° |
| 2026-05-06 07:01 | 53.47939 | 10.45385 | 36827 ft | 432 kts | 163° |
| 2026-05-06 07:01 | 53.42283 | 10.48547 | 36835 ft | 431 kts | 163° |
| 2026-05-06 07:02 | 53.36597 | 10.51717 | 36829 ft | 430 kts | 163° |
| 2026-05-06 07:02 | 53.30907 | 10.54880 | 36825 ft | 431 kts | 163° |
| 2026-05-06 07:03 | 53.25202 | 10.58043 | 36805 ft | 433 kts | 163° |
| 2026-05-06 07:03 | 53.19466 | 10.61213 | 36828 ft | 435 kts | 163° |
| 2026-05-06 07:04 | 53.13737 | 10.64372 | 36819 ft | 437 kts | 163° |
| 2026-05-06 07:04 | 53.07909 | 10.67576 | 36823 ft | 439 kts | 163° |
| 2026-05-06 07:05 | 53.02143 | 10.70736 | 36809 ft | 440 kts | 163° |
| 2026-05-06 07:05 | 52.96396 | 10.73878 | 36804 ft | 440 kts | 163° |
| 2026-05-06 07:05 | 52.93476 | 10.75470 | 36457 ft | 446 kts | 163° |
| 2026-05-06 07:06 | 52.90541 | 10.77069 | 36019 ft | 440 kts | 162° |
| 2026-05-06 07:06 | 52.87636 | 10.78649 | 35322 ft | 439 kts | 162° |
| 2026-05-06 07:06 | 52.84729 | 10.80228 | 34655 ft | 438 kts | 162° |
| 2026-05-06 07:06 | 52.81845 | 10.81793 | 34076 ft | 434 kts | 161° |
| 2026-05-06 07:07 | 52.78959 | 10.83356 | 33158 ft | 437 kts | 161° |
| 2026-05-06 07:07 | 52.76073 | 10.84917 | 32427 ft | 436 kts | 161° |
| 2026-05-06 07:07 | 52.73188 | 10.86476 | 31663 ft | 436 kts | 161° |
| 2026-05-06 07:07 | 52.70329 | 10.88018 | 30901 ft | 436 kts | 161° |
| 2026-05-06 07:08 | 52.67440 | 10.89575 | 30121 ft | 436 kts | 161° |
| 2026-05-06 07:08 | 52.64547 | 10.91130 | 29224 ft | 439 kts | 161° |
| 2026-05-06 07:08 | 52.61597 | 10.92716 | 28310 ft | 452 kts | 161° |
| 2026-05-06 07:08 | 52.58617 | 10.94316 | 27362 ft | 457 kts | 161° |
| 2026-05-06 07:09 | 52.55593 | 10.95936 | 26527 ft | 454 kts | 161° |
| 2026-05-06 07:09 | 52.52608 | 10.97532 | 25842 ft | 448 kts | 162° |
| 2026-05-06 07:09 | 52.49660 | 10.99106 | 25164 ft | 443 kts | 162° |
| 2026-05-06 07:09 | 52.46743 | 11.00662 | 24501 ft | 439 kts | 163° |
| 2026-05-06 07:10 | 52.43878 | 11.02188 | 23852 ft | 434 kts | 163° |
| 2026-05-06 07:10 | 52.41016 | 11.03710 | 23152 ft | 433 kts | 163° |
| 2026-05-06 07:10 | 52.38127 | 11.05243 | 22415 ft | 439 kts | 163° |
| 2026-05-06 07:10 | 52.35231 | 11.06779 | 21700 ft | 435 kts | 163° |
| 2026-05-06 07:11 | 52.32372 | 11.08294 | 21024 ft | 429 kts | 163° |
| 2026-05-06 07:11 | 52.29539 | 11.09793 | 20368 ft | 425 kts | 163° |
| 2026-05-06 07:11 | 52.26738 | 11.11273 | 19726 ft | 421 kts | 163° |
| 2026-05-06 07:11 | 52.23961 | 11.12738 | 19075 ft | 418 kts | 164° |
| 2026-05-06 07:12 | 52.21204 | 11.14192 | 18426 ft | 415 kts | 165° |
| 2026-05-06 07:12 | 52.18465 | 11.15634 | 17746 ft | 411 kts | 165° |
| 2026-05-06 07:12 | 52.15754 | 11.17059 | 17046 ft | 408 kts | 165° |
| 2026-05-06 07:12 | 52.13065 | 11.18470 | 16383 ft | 403 kts | 165° |
| 2026-05-06 07:13 | 52.10458 | 11.19837 | 15928 ft | 396 kts | 165° |
| 2026-05-06 07:13 | 52.07837 | 11.21209 | 15337 ft | 393 kts | 165° |
| 2026-05-06 07:13 | 52.05236 | 11.22568 | 14727 ft | 392 kts | 165° |
| 2026-05-06 07:13 | 52.02630 | 11.23927 | 14116 ft | 394 kts | 165° |
| 2026-05-06 07:14 | 52.00022 | 11.25286 | 13478 ft | 393 kts | 165° |
| 2026-05-06 07:14 | 51.97431 | 11.26636 | 12782 ft | 389 kts | 165° |
| 2026-05-06 07:14 | 51.94893 | 11.27958 | 12157 ft | 384 kts | 165° |
| 2026-05-06 07:14 | 51.92363 | 11.29274 | 11546 ft | 379 kts | 165° |
| 2026-05-06 07:15 | 51.89870 | 11.30569 | 11112 ft | 371 kts | 166° |
| 2026-05-06 07:15 | 51.87455 | 11.31825 | 10967 ft | 359 kts | 166° |
| 2026-05-06 07:15 | 51.85109 | 11.33043 | 10805 ft | 347 kts | 166° |
| 2026-05-06 07:15 | 51.82873 | 11.34202 | 10658 ft | 335 kts | 166° |
| 2026-05-06 07:16 | 51.80686 | 11.35334 | 10517 ft | 324 kts | 166° |
| 2026-05-06 07:16 | 51.78572 | 11.36426 | 10381 ft | 313 kts | 166° |
| 2026-05-06 07:16 | 51.76526 | 11.37481 | 10257 ft | 304 kts | 167° |
| 2026-05-06 07:16 | 51.74541 | 11.38503 | 10122 ft | 295 kts | 167° |
| 2026-05-06 07:17 | 51.72612 | 11.39495 | 9988 ft | 286 kts | 166° |
| 2026-05-06 07:17 | 51.70726 | 11.40463 | 9726 ft | 283 kts | 166° |
| 2026-05-06 07:17 | 51.68877 | 11.41411 | 9439 ft | 281 kts | 166° |
| 2026-05-06 07:17 | 51.67017 | 11.42363 | 9138 ft | 279 kts | 166° |
| 2026-05-06 07:18 | 51.65172 | 11.43308 | 8839 ft | 276 kts | 166° |
| 2026-05-06 07:18 | 51.63342 | 11.44246 | 8555 ft | 274 kts | 166° |
| 2026-05-06 07:18 | 51.61536 | 11.45171 | 8271 ft | 271 kts | 166° |
| 2026-05-06 07:18 | 51.59759 | 11.46080 | 8008 ft | 270 kts | 166° |
| 2026-05-06 07:19 | 51.57973 | 11.46994 | 7723 ft | 269 kts | 166° |
| 2026-05-06 07:19 | 51.56190 | 11.47903 | 7465 ft | 270 kts | 166° |
| 2026-05-06 07:19 | 51.54393 | 11.48834 | 7189 ft | 274 kts | 163° |
| 2026-05-06 07:19 | 51.52574 | 11.49880 | 6898 ft | 280 kts | 166° |
| 2026-05-06 07:20 | 51.50787 | 11.51252 | 6546 ft | 292 kts | 142° |
| 2026-05-06 07:20 | 51.49490 | 11.53791 | 6278 ft | 296 kts | 124° |
| 2026-05-06 07:20 | 51.48408 | 11.56556 | 5967 ft | 297 kts | 124° |
| 2026-05-06 07:20 | 51.47296 | 11.59350 | 5626 ft | 297 kts | 124° |
| 2026-05-06 07:21 | 51.46178 | 11.62106 | 5285 ft | 292 kts | 125° |
| 2026-05-06 07:21 | 51.45072 | 11.64769 | 4994 ft | 281 kts | 126° |
| 2026-05-06 07:21 | 51.43998 | 11.67307 | 4743 ft | 268 kts | 126° |
| 2026-05-06 07:21 | 51.42973 | 11.69699 | 4580 ft | 252 kts | 127° |
| 2026-05-06 07:22 | 51.41992 | 11.71971 | 4468 ft | 246 kts | 127° |
| 2026-05-06 07:22 | 51.41031 | 11.74187 | 4349 ft | 245 kts | 127° |
| 2026-05-06 07:22 | 51.40067 | 11.76406 | 4221 ft | 239 kts | 127° |
| 2026-05-06 07:22 | 51.39284 | 11.78682 | 4032 ft | 231 kts | 104° |
| 2026-05-06 07:23 | 51.39340 | 11.81192 | 3923 ft | 226 kts | 79° |
| 2026-05-06 07:23 | 51.39527 | 11.83693 | 3801 ft | 226 kts | 86° |
| 2026-05-06 07:23 | 51.39624 | 11.86200 | 3668 ft | 224 kts | 86° |
| 2026-05-06 07:23 | 51.39688 | 11.87853 | 3577 ft | 224 kts | 86° |
| 2026-05-06 07:24 | 51.39793 | 11.90332 | 3462 ft | 222 kts | 86° |
| 2026-05-06 07:24 | 51.39901 | 11.92789 | 3331 ft | 221 kts | 86° |
| 2026-05-06 07:24 | 51.40008 | 11.95205 | 3191 ft | 212 kts | 86° |
| 2026-05-06 07:24 | 51.40111 | 11.97515 | 3038 ft | 203 kts | 86° |
| 2026-05-06 07:25 | 51.40211 | 11.99761 | 2957 ft | 203 kts | 86° |
| 2026-05-06 07:25 | 51.40314 | 12.02029 | 2722 ft | 205 kts | 86° |
| 2026-05-06 07:25 | 51.40415 | 12.04256 | 2440 ft | 196 kts | 86° |
| 2026-05-06 07:25 | 51.40508 | 12.06338 | 2191 ft | 184 kts | 86° |
| 2026-05-06 07:26 | 51.40598 | 12.08324 | 1947 ft | 173 kts | 85° |
| 2026-05-06 07:26 | 51.40684 | 12.10173 | 1735 ft | 165 kts | 85° |
| 2026-05-06 07:26 | 51.40764 | 12.12008 | 1534 ft | 163 kts | 86° |
| 2026-05-06 07:26 | 51.40851 | 12.13838 | 1299 ft | 170 kts | 83° |
| 2026-05-06 07:27 | 51.40938 | 12.15737 | 1055 ft | 167 kts | 84° |
| 2026-05-06 07:27 | 51.41021 | 12.17549 | 841 ft | 159 kts | 83° |
| 2026-05-06 07:27 | 51.41107 | 12.19246 | 639 ft | 154 kts | 84° |
| 2026-05-06 07:27 | 51.41184 | 12.20949 | 469 ft | 149 kts | 84° |
| 2026-05-06 07:28 | 51.41253 | 12.22470 | 462 ft | 117 kts | 82° |
| 2026-05-06 07:28 | 51.41299 | 12.23420 | 469 ft | 53 kts | 85° |
| 2026-05-06 07:28 | 51.41291 | 12.24002 | 472 ft | 22 kts | 107° |
| 2026-05-06 07:29 | 51.41226 | 12.24222 | 469 ft | 22 kts | 115° |
| 2026-05-06 07:29 | 51.41161 | 12.24385 | 472 ft | 15 kts | 153° |
| 2026-05-06 07:29 | 51.41083 | 12.24335 | 470 ft | 14 kts | 259° |
| 2026-05-06 07:29 | 51.41077 | 12.24184 | 470 ft | 13 kts | 265° |
| 2026-05-06 07:30 | 51.41069 | 12.24029 | 470 ft | 14 kts | 265° |
| 2026-05-06 07:30 | 51.41062 | 12.23875 | 470 ft | 14 kts | 265° |
| 2026-05-06 07:30 | 51.41055 | 12.23727 | 470 ft | 13 kts | 266° |
| 2026-05-06 07:30 | 51.41048 | 12.23584 | 470 ft | 13 kts | 265° |
| 2026-05-06 07:31 | 51.41042 | 12.23444 | 470 ft | 12 kts | 266° |
| 2026-05-06 07:31 | 51.41036 | 12.23308 | 470 ft | 12 kts | 265° |
| 2026-05-06 07:31 | 51.41009 | 12.23190 | 470 ft | 12 kts | 208° |
| 2026-05-06 07:31 | 51.40937 | 12.23174 | 466 ft | 8 kts | 225° |
| 2026-05-06 07:32 | 51.40929 | 12.23102 | 468 ft | 6 kts | 265° |
| 2026-05-06 07:32 | 51.40928 | 12.23088 | 468 ft | 0 kts | 265° |